Portada
METAR-TAF:

METAR-TAF

Aeropuertos :

Barcelona, España

Aeropuerto de Barcelona-El Prat

latitud: 41-17N, longitud: 002-04E, altitud: 4 m

Observación

El informe se hizo hace 26 minutos, a las 09:00 UTC
Viento 8 kt del sur-suroeste
Temperatura 19°C
Humedad 78%
Presión 1017 hPa
Visibilidad 10 km o más
Nubes dispersas a una altura de 1500 ft

METAR: LEBL 260900Z 21008KT 9999 SCT015 19/15 Q1017 NOSIG

Hora: 11:26 (09:26 UTC)

Pronóstico

El informe se hizo hace 4 horas y 26 minutos, a las 05:00 UTC
Pronóstico válido del 26 a las 06 UTC al 27 a las 06 UTC
Viento 6 kt del norte-noroeste
Visibilidad 10 km o más
Escasas nubes a una altura de 3000 ft
Evolucionando progresivamente
del 26 a las 07 UTC al 26 a las 10 UTC
Viento 8 kt del sur-sureste
Evolucionando progresivamente
del 26 a las 18 UTC al 26 a las 20 UTC
Viento 6 kt del oeste-suroeste

TAF: LEBL 260500Z 2606/2706 34006KT 9999 FEW030 TX21/2612Z TN15/2606Z BECMG 2607/2610 16008KT BECMG 2618/2620 25006KT

Observaciones y pronósticos meteorológicos de más de 4000 aeropuertos (mensajes METAR y TAF).

Los puntos amarillos y rojos representan las estaciones disponibles.

Ponga el ratón en el punto deseado para ver el nombre de la estación.

Haga clic para ver las observaciones y los pronósticos meteorológicos.

Para cambiar el mapa : haga clic en los botones verdes con una cruz de color negro para hacer un zoom, en el botón verde con un guión para alejar o en las flechas verdes para mapas adyacentes.


METAR-TAF: